sensor_id;sensor_type;location;lat;lon;timestamp;P1;durP1;ratioP1;P2;durP2;ratioP2
9508;SDS011;4792;50.088;8.122;2022-12-13T00:01:44;38.77;;;19.57;;
9508;SDS011;4792;50.088;8.122;2022-12-13T00:04:15;42.43;;;19.80;;
9508;SDS011;4792;50.088;8.122;2022-12-13T00:06:44;38.47;;;17.43;;
9508;SDS011;4792;50.088;8.122;2022-12-13T00:09:13;36.17;;;16.87;;
9508;SDS011;4792;50.088;8.122;2022-12-13T00:11:42;37.07;;;17.67;;
9508;SDS011;4792;50.088;8.122;2022-12-13T00:14:11;38.80;;;19.20;;
9508;SDS011;4792;50.088;8.122;2022-12-13T00:16:43;43.47;;;19.30;;
9508;SDS011;4792;50.088;8.122;2022-12-13T00:19:12;36.40;;;17.63;;
9508;SDS011;4792;50.088;8.122;2022-12-13T00:21:42;38.63;;;17.10;;
9508;SDS011;4792;50.088;8.122;2022-12-13T00:24:11;36.90;;;18.07;;
9508;SDS011;4792;50.088;8.122;2022-12-13T00:26:39;34.20;;;15.63;;
9508;SDS011;4792;50.088;8.122;2022-12-13T00:29:09;39.60;;;17.33;;
9508;SDS011;4792;50.088;8.122;2022-12-13T00:31:39;33.70;;;17.50;;
9508;SDS011;4792;50.088;8.122;2022-12-13T00:34:29;35.63;;;16.57;;
9508;SDS011;4792;50.088;8.122;2022-12-13T00:36:58;36.50;;;17.97;;
9508;SDS011;4792;50.088;8.122;2022-12-13T00:39:27;31.93;;;16.23;;
9508;SDS011;4792;50.088;8.122;2022-12-13T00:41:56;33.47;;;16.03;;
9508;SDS011;4792;50.088;8.122;2022-12-13T00:44:25;32.57;;;16.43;;
9508;SDS011;4792;50.088;8.122;2022-12-13T00:46:53;35.57;;;16.77;;
9508;SDS011;4792;50.088;8.122;2022-12-13T00:49:22;32.70;;;17.27;;
9508;SDS011;4792;50.088;8.122;2022-12-13T00:51:51;33.53;;;15.00;;
9508;SDS011;4792;50.088;8.122;2022-12-13T00:54:20;33.83;;;16.57;;
9508;SDS011;4792;50.088;8.122;2022-12-13T00:56:49;32.13;;;16.03;;
9508;SDS011;4792;50.088;8.122;2022-12-13T00:59:18;31.30;;;16.33;;
9508;SDS011;4792;50.088;8.122;2022-12-13T01:01:47;30.33;;;14.50;;
9508;SDS011;4792;50.088;8.122;2022-12-13T01:04:15;30.87;;;15.80;;
9508;SDS011;4792;50.088;8.122;2022-12-13T01:06:44;33.67;;;15.60;;
9508;SDS011;4792;50.088;8.122;2022-12-13T01:09:17;31.80;;;15.67;;
9508;SDS011;4792;50.088;8.122;2022-12-13T01:11:47;35.67;;;15.83;;
9508;SDS011;4792;50.088;8.122;2022-12-13T01:14:17;34.63;;;15.67;;
9508;SDS011;4792;50.088;8.122;2022-12-13T01:16:46;37.53;;;16.93;;
9508;SDS011;4792;50.088;8.122;2022-12-13T01:19:14;37.50;;;18.07;;
9508;SDS011;4792;50.088;8.122;2022-12-13T01:21:43;30.57;;;16.17;;
9508;SDS011;4792;50.088;8.122;2022-12-13T01:24:12;30.83;;;15.27;;
9508;SDS011;4792;50.088;8.122;2022-12-13T01:26:42;30.37;;;15.63;;
9508;SDS011;4792;50.088;8.122;2022-12-13T01:29:11;34.63;;;16.17;;
9508;SDS011;4792;50.088;8.122;2022-12-13T01:31:40;34.97;;;15.33;;
9508;SDS011;4792;50.088;8.122;2022-12-13T01:34:08;35.07;;;15.93;;
9508;SDS011;4792;50.088;8.122;2022-12-13T01:36:38;32.37;;;15.97;;
9508;SDS011;4792;50.088;8.122;2022-12-13T01:39:09;32.33;;;16.63;;
9508;SDS011;4792;50.088;8.122;2022-12-13T01:41:40;31.77;;;15.67;;
9508;SDS011;4792;50.088;8.122;2022-12-13T01:47:18;36.10;;;16.20;;
9508;SDS011;4792;50.088;8.122;2022-12-13T01:49:50;33.43;;;16.63;;
9508;SDS011;4792;50.088;8.122;2022-12-13T01:52:25;33.73;;;15.07;;
9508;SDS011;4792;50.088;8.122;2022-12-13T01:54:57;34.30;;;15.20;;
9508;SDS011;4792;50.088;8.122;2022-12-13T01:57:30;33.57;;;15.03;;
9508;SDS011;4792;50.088;8.122;2022-12-13T02:00:03;31.40;;;15.17;;
9508;SDS011;4792;50.088;8.122;2022-12-13T02:02:33;32.37;;;17.27;;
9508;SDS011;4792;50.088;8.122;2022-12-13T02:05:03;34.13;;;17.37;;
9508;SDS011;4792;50.088;8.122;2022-12-13T02:07:37;33.17;;;17.17;;
9508;SDS011;4792;50.088;8.122;2022-12-13T02:10:07;31.00;;;16.07;;
9508;SDS011;4792;50.088;8.122;2022-12-13T02:12:38;37.10;;;17.63;;
9508;SDS011;4792;50.088;8.122;2022-12-13T02:15:09;33.03;;;17.03;;
9508;SDS011;4792;50.088;8.122;2022-12-13T02:17:45;31.60;;;16.47;;
9508;SDS011;4792;50.088;8.122;2022-12-13T02:27:03;32.30;;;16.63;;
9508;SDS011;4792;50.088;8.122;2022-12-13T02:32:45;30.97;;;15.70;;
9508;SDS011;4792;50.088;8.122;2022-12-13T02:35:49;37.13;;;16.37;;
9508;SDS011;4792;50.088;8.122;2022-12-13T02:38:23;40.07;;;17.33;;
9508;SDS011;4792;50.088;8.122;2022-12-13T02:40:59;31.17;;;14.97;;
9508;SDS011;4792;50.088;8.122;2022-12-13T02:43:37;30.13;;;14.47;;
9508;SDS011;4792;50.088;8.122;2022-12-13T02:46:14;32.03;;;16.33;;
9508;SDS011;4792;50.088;8.122;2022-12-13T02:48:46;31.63;;;15.97;;
9508;SDS011;4792;50.088;8.122;2022-12-13T02:51:17;31.57;;;15.60;;
9508;SDS011;4792;50.088;8.122;2022-12-13T02:53:47;31.60;;;15.37;;
9508;SDS011;4792;50.088;8.122;2022-12-13T02:56:15;33.57;;;16.70;;
9508;SDS011;4792;50.088;8.122;2022-12-13T02:58:46;29.47;;;13.97;;
9508;SDS011;4792;50.088;8.122;2022-12-13T03:01:23;26.33;;;14.43;;
9508;SDS011;4792;50.088;8.122;2022-12-13T03:04:08;32.23;;;15.50;;
9508;SDS011;4792;50.088;8.122;2022-12-13T03:06:45;31.37;;;15.13;;
9508;SDS011;4792;50.088;8.122;2022-12-13T03:09:25;33.27;;;15.87;;
9508;SDS011;4792;50.088;8.122;2022-12-13T03:12:09;28.97;;;14.77;;
9508;SDS011;4792;50.088;8.122;2022-12-13T03:15:06;36.53;;;15.50;;
9508;SDS011;4792;50.088;8.122;2022-12-13T03:17:44;32.70;;;15.83;;
9508;SDS011;4792;50.088;8.122;2022-12-13T03:20:18;30.47;;;15.03;;
9508;SDS011;4792;50.088;8.122;2022-12-13T03:22:51;34.47;;;16.20;;
9508;SDS011;4792;50.088;8.122;2022-12-13T03:27:58;28.47;;;16.23;;
9508;SDS011;4792;50.088;8.122;2022-12-13T03:30:27;29.97;;;15.80;;
9508;SDS011;4792;50.088;8.122;2022-12-13T03:32:58;28.83;;;15.23;;
9508;SDS011;4792;50.088;8.122;2022-12-13T03:35:27;27.83;;;14.13;;
9508;SDS011;4792;50.088;8.122;2022-12-13T03:38:09;33.93;;;14.73;;
9508;SDS011;4792;50.088;8.122;2022-12-13T03:40:46;27.60;;;14.80;;
9508;SDS011;4792;50.088;8.122;2022-12-13T03:43:16;27.80;;;14.40;;
9508;SDS011;4792;50.088;8.122;2022-12-13T03:45:48;30.33;;;14.73;;
9508;SDS011;4792;50.088;8.122;2022-12-13T03:48:18;29.77;;;14.60;;
9508;SDS011;4792;50.088;8.122;2022-12-13T03:50:49;28.00;;;14.23;;
9508;SDS011;4792;50.088;8.122;2022-12-13T03:53:18;29.97;;;15.30;;
9508;SDS011;4792;50.088;8.122;2022-12-13T03:55:59;29.10;;;15.00;;
9508;SDS011;4792;50.088;8.122;2022-12-13T03:58:28;32.77;;;16.47;;
9508;SDS011;4792;50.088;8.122;2022-12-13T04:01:03;30.73;;;15.93;;
9508;SDS011;4792;50.088;8.122;2022-12-13T04:03:34;31.37;;;15.77;;
9508;SDS011;4792;50.088;8.122;2022-12-13T04:06:03;30.63;;;15.20;;
9508;SDS011;4792;50.088;8.122;2022-12-13T04:08:32;29.90;;;15.33;;
9508;SDS011;4792;50.088;8.122;2022-12-13T04:11:00;30.70;;;15.37;;
9508;SDS011;4792;50.088;8.122;2022-12-13T04:13:50;30.60;;;16.43;;
9508;SDS011;4792;50.088;8.122;2022-12-13T04:16:17;33.97;;;16.87;;
9508;SDS011;4792;50.088;8.122;2022-12-13T04:18:47;31.40;;;15.80;;
9508;SDS011;4792;50.088;8.122;2022-12-13T04:21:15;27.50;;;15.10;;
9508;SDS011;4792;50.088;8.122;2022-12-13T04:23:44;33.47;;;16.07;;
9508;SDS011;4792;50.088;8.122;2022-12-13T04:26:12;32.20;;;17.13;;
9508;SDS011;4792;50.088;8.122;2022-12-13T04:28:40;33.60;;;16.67;;
9508;SDS011;4792;50.088;8.122;2022-12-13T04:31:08;31.47;;;16.60;;
9508;SDS011;4792;50.088;8.122;2022-12-13T04:33:36;32.30;;;17.10;;
9508;SDS011;4792;50.088;8.122;2022-12-13T04:36:07;30.27;;;15.50;;
9508;SDS011;4792;50.088;8.122;2022-12-13T04:38:35;34.23;;;16.23;;
9508;SDS011;4792;50.088;8.122;2022-12-13T04:41:04;30.70;;;15.30;;
9508;SDS011;4792;50.088;8.122;2022-12-13T04:43:33;31.20;;;15.17;;
9508;SDS011;4792;50.088;8.122;2022-12-13T04:46:01;31.73;;;16.47;;
9508;SDS011;4792;50.088;8.122;2022-12-13T04:48:29;35.13;;;15.13;;
9508;SDS011;4792;50.088;8.122;2022-12-13T04:50:58;28.60;;;14.87;;
9508;SDS011;4792;50.088;8.122;2022-12-13T04:53:29;29.40;;;15.33;;
9508;SDS011;4792;50.088;8.122;2022-12-13T04:55:57;30.73;;;14.53;;
9508;SDS011;4792;50.088;8.122;2022-12-13T04:58:26;29.47;;;15.23;;
9508;SDS011;4792;50.088;8.122;2022-12-13T05:00:54;26.43;;;14.47;;
9508;SDS011;4792;50.088;8.122;2022-12-13T05:03:22;29.30;;;16.00;;
9508;SDS011;4792;50.088;8.122;2022-12-13T05:05:50;30.03;;;14.53;;
9508;SDS011;4792;50.088;8.122;2022-12-13T05:08:19;27.70;;;14.57;;
9508;SDS011;4792;50.088;8.122;2022-12-13T05:10:48;30.20;;;14.23;;
9508;SDS011;4792;50.088;8.122;2022-12-13T05:13:16;26.70;;;13.00;;
9508;SDS011;4792;50.088;8.122;2022-12-13T05:15:44;29.07;;;14.33;;
9508;SDS011;4792;50.088;8.122;2022-12-13T05:18:20;30.47;;;15.27;;
9508;SDS011;4792;50.088;8.122;2022-12-13T05:20:48;27.00;;;14.53;;
9508;SDS011;4792;50.088;8.122;2022-12-13T05:23:17;32.87;;;14.80;;
9508;SDS011;4792;50.088;8.122;2022-12-13T05:25:49;27.10;;;14.27;;
9508;SDS011;4792;50.088;8.122;2022-12-13T05:28:18;23.37;;;12.93;;
9508;SDS011;4792;50.088;8.122;2022-12-13T05:30:54;26.40;;;13.47;;
9508;SDS011;4792;50.088;8.122;2022-12-13T05:33:24;26.20;;;13.63;;
9508;SDS011;4792;50.088;8.122;2022-12-13T05:35:52;27.10;;;13.23;;
9508;SDS011;4792;50.088;8.122;2022-12-13T05:38:27;30.20;;;13.90;;
9508;SDS011;4792;50.088;8.122;2022-12-13T05:40:58;25.10;;;13.83;;
9508;SDS011;4792;50.088;8.122;2022-12-13T05:43:27;26.67;;;12.80;;
9508;SDS011;4792;50.088;8.122;2022-12-13T05:46:08;27.50;;;15.13;;
9508;SDS011;4792;50.088;8.122;2022-12-13T05:48:37;23.17;;;12.77;;
9508;SDS011;4792;50.088;8.122;2022-12-13T05:51:05;26.20;;;12.50;;
9508;SDS011;4792;50.088;8.122;2022-12-13T05:53:36;27.40;;;13.07;;
9508;SDS011;4792;50.088;8.122;2022-12-13T05:56:07;27.57;;;13.27;;
9508;SDS011;4792;50.088;8.122;2022-12-13T05:58:38;29.97;;;15.20;;
9508;SDS011;4792;50.088;8.122;2022-12-13T06:01:08;23.47;;;12.70;;
9508;SDS011;4792;50.088;8.122;2022-12-13T06:03:38;25.70;;;13.37;;
9508;SDS011;4792;50.088;8.122;2022-12-13T06:06:07;29.67;;;13.47;;
9508;SDS011;4792;50.088;8.122;2022-12-13T06:08:37;25.60;;;13.30;;
9508;SDS011;4792;50.088;8.122;2022-12-13T06:11:07;29.30;;;13.63;;
9508;SDS011;4792;50.088;8.122;2022-12-13T06:13:38;24.97;;;13.43;;
9508;SDS011;4792;50.088;8.122;2022-12-13T06:16:09;24.90;;;13.67;;
9508;SDS011;4792;50.088;8.122;2022-12-13T06:18:49;26.83;;;14.37;;
9508;SDS011;4792;50.088;8.122;2022-12-13T06:21:28;22.40;;;12.10;;
9508;SDS011;4792;50.088;8.122;2022-12-13T06:24:10;28.50;;;13.57;;
9508;SDS011;4792;50.088;8.122;2022-12-13T06:26:41;31.07;;;15.70;;
9508;SDS011;4792;50.088;8.122;2022-12-13T06:29:11;27.17;;;13.50;;
9508;SDS011;4792;50.088;8.122;2022-12-13T06:31:51;25.60;;;13.43;;
9508;SDS011;4792;50.088;8.122;2022-12-13T06:34:28;22.17;;;11.90;;
9508;SDS011;4792;50.088;8.122;2022-12-13T06:36:58;24.80;;;12.40;;
9508;SDS011;4792;50.088;8.122;2022-12-13T06:39:26;26.80;;;13.80;;
9508;SDS011;4792;50.088;8.122;2022-12-13T06:42:06;27.97;;;13.80;;
9508;SDS011;4792;50.088;8.122;2022-12-13T06:44:47;27.73;;;13.20;;
9508;SDS011;4792;50.088;8.122;2022-12-13T06:47:21;22.77;;;12.27;;
9508;SDS011;4792;50.088;8.122;2022-12-13T06:49:57;26.33;;;13.07;;
9508;SDS011;4792;50.088;8.122;2022-12-13T06:52:31;24.60;;;13.53;;
9508;SDS011;4792;50.088;8.122;2022-12-13T06:54:59;24.43;;;12.57;;
9508;SDS011;4792;50.088;8.122;2022-12-13T06:57:29;22.43;;;12.67;;
9508;SDS011;4792;50.088;8.122;2022-12-13T06:59:59;26.37;;;13.23;;
9508;SDS011;4792;50.088;8.122;2022-12-13T07:02:28;24.47;;;11.67;;
9508;SDS011;4792;50.088;8.122;2022-12-13T07:04:58;28.53;;;14.07;;
9508;SDS011;4792;50.088;8.122;2022-12-13T07:07:26;25.20;;;12.50;;
9508;SDS011;4792;50.088;8.122;2022-12-13T07:09:55;27.60;;;12.77;;
9508;SDS011;4792;50.088;8.122;2022-12-13T07:12:23;21.57;;;13.43;;
9508;SDS011;4792;50.088;8.122;2022-12-13T07:14:52;26.23;;;13.03;;
9508;SDS011;4792;50.088;8.122;2022-12-13T07:17:21;24.73;;;13.30;;
9508;SDS011;4792;50.088;8.122;2022-12-13T07:19:59;26.40;;;13.73;;
9508;SDS011;4792;50.088;8.122;2022-12-13T07:22:29;24.13;;;14.17;;
9508;SDS011;4792;50.088;8.122;2022-12-13T07:25:01;26.87;;;13.07;;
9508;SDS011;4792;50.088;8.122;2022-12-13T07:27:30;24.53;;;12.90;;
9508;SDS011;4792;50.088;8.122;2022-12-13T07:30:00;28.20;;;13.33;;
9508;SDS011;4792;50.088;8.122;2022-12-13T07:32:29;29.97;;;12.80;;
9508;SDS011;4792;50.088;8.122;2022-12-13T07:34:57;25.77;;;13.40;;
9508;SDS011;4792;50.088;8.122;2022-12-13T07:37:25;21.80;;;13.00;;
9508;SDS011;4792;50.088;8.122;2022-12-13T07:39:56;26.67;;;13.53;;
9508;SDS011;4792;50.088;8.122;2022-12-13T07:42:29;26.17;;;13.33;;
9508;SDS011;4792;50.088;8.122;2022-12-13T07:44:58;24.80;;;13.20;;
9508;SDS011;4792;50.088;8.122;2022-12-13T07:47:29;26.67;;;12.50;;
9508;SDS011;4792;50.088;8.122;2022-12-13T07:49:57;24.87;;;13.23;;
9508;SDS011;4792;50.088;8.122;2022-12-13T07:52:27;27.70;;;12.13;;
9508;SDS011;4792;50.088;8.122;2022-12-13T07:54:55;25.93;;;13.13;;
9508;SDS011;4792;50.088;8.122;2022-12-13T07:57:23;25.90;;;11.83;;
9508;SDS011;4792;50.088;8.122;2022-12-13T07:59:51;28.00;;;14.10;;
9508;SDS011;4792;50.088;8.122;2022-12-13T08:02:19;27.53;;;13.33;;
9508;SDS011;4792;50.088;8.122;2022-12-13T08:04:49;27.30;;;11.40;;
9508;SDS011;4792;50.088;8.122;2022-12-13T08:07:20;25.33;;;13.90;;
9508;SDS011;4792;50.088;8.122;2022-12-13T08:09:48;22.20;;;11.70;;
9508;SDS011;4792;50.088;8.122;2022-12-13T08:12:18;27.33;;;11.70;;
9508;SDS011;4792;50.088;8.122;2022-12-13T08:14:48;24.50;;;11.80;;
9508;SDS011;4792;50.088;8.122;2022-12-13T08:17:18;25.77;;;12.37;;
9508;SDS011;4792;50.088;8.122;2022-12-13T08:19:48;21.70;;;11.33;;
9508;SDS011;4792;50.088;8.122;2022-12-13T08:22:16;22.97;;;11.97;;
9508;SDS011;4792;50.088;8.122;2022-12-13T08:24:49;21.63;;;11.73;;
9508;SDS011;4792;50.088;8.122;2022-12-13T08:27:17;23.57;;;11.90;;
9508;SDS011;4792;50.088;8.122;2022-12-13T08:29:46;20.37;;;10.73;;
9508;SDS011;4792;50.088;8.122;2022-12-13T08:32:14;19.67;;;10.70;;
9508;SDS011;4792;50.088;8.122;2022-12-13T08:34:42;20.13;;;10.83;;
9508;SDS011;4792;50.088;8.122;2022-12-13T08:37:12;21.20;;;11.23;;
9508;SDS011;4792;50.088;8.122;2022-12-13T08:39:40;19.37;;;10.27;;
9508;SDS011;4792;50.088;8.122;2022-12-13T08:42:10;21.03;;;11.07;;
9508;SDS011;4792;50.088;8.122;2022-12-13T08:44:45;18.83;;;10.30;;
9508;SDS011;4792;50.088;8.122;2022-12-13T08:47:14;18.80;;;10.20;;
9508;SDS011;4792;50.088;8.122;2022-12-13T08:49:51;19.00;;;10.17;;
9508;SDS011;4792;50.088;8.122;2022-12-13T08:52:22;16.93;;;9.40;;
9508;SDS011;4792;50.088;8.122;2022-12-13T08:54:50;15.70;;;9.07;;
9508;SDS011;4792;50.088;8.122;2022-12-13T08:57:18;21.70;;;11.37;;
9508;SDS011;4792;50.088;8.122;2022-12-13T08:59:46;19.90;;;10.80;;
9508;SDS011;4792;50.088;8.122;2022-12-13T09:02:14;19.10;;;10.20;;
9508;SDS011;4792;50.088;8.122;2022-12-13T09:04:43;17.73;;;9.20;;
9508;SDS011;4792;50.088;8.122;2022-12-13T09:07:11;17.20;;;10.00;;
9508;SDS011;4792;50.088;8.122;2022-12-13T09:09:41;19.50;;;9.77;;
9508;SDS011;4792;50.088;8.122;2022-12-13T09:12:09;20.30;;;10.77;;
9508;SDS011;4792;50.088;8.122;2022-12-13T09:14:56;17.77;;;9.27;;
9508;SDS011;4792;50.088;8.122;2022-12-13T09:17:28;19.13;;;9.97;;
9508;SDS011;4792;50.088;8.122;2022-12-13T09:20:04;18.37;;;9.53;;
9508;SDS011;4792;50.088;8.122;2022-12-13T09:22:54;18.83;;;10.10;;
9508;SDS011;4792;50.088;8.122;2022-12-13T09:25:29;17.13;;;8.57;;
9508;SDS011;4792;50.088;8.122;2022-12-13T09:28:03;17.90;;;9.57;;
9508;SDS011;4792;50.088;8.122;2022-12-13T09:30:33;17.73;;;9.43;;
9508;SDS011;4792;50.088;8.122;2022-12-13T09:33:01;21.33;;;10.17;;
9508;SDS011;4792;50.088;8.122;2022-12-13T09:35:49;19.37;;;9.90;;
9508;SDS011;4792;50.088;8.122;2022-12-13T09:38:18;20.00;;;10.27;;
9508;SDS011;4792;50.088;8.122;2022-12-13T09:40:48;19.13;;;9.77;;
9508;SDS011;4792;50.088;8.122;2022-12-13T09:43:25;15.30;;;8.83;;
9508;SDS011;4792;50.088;8.122;2022-12-13T09:45:59;19.50;;;10.53;;
9508;SDS011;4792;50.088;8.122;2022-12-13T09:48:48;18.13;;;9.80;;
9508;SDS011;4792;50.088;8.122;2022-12-13T09:51:28;18.23;;;10.00;;
9508;SDS011;4792;50.088;8.122;2022-12-13T09:54:10;21.23;;;9.80;;
9508;SDS011;4792;50.088;8.122;2022-12-13T09:56:46;16.80;;;10.10;;
9508;SDS011;4792;50.088;8.122;2022-12-13T09:59:16;19.00;;;10.10;;
9508;SDS011;4792;50.088;8.122;2022-12-13T10:01:45;17.57;;;9.73;;
9508;SDS011;4792;50.088;8.122;2022-12-13T10:04:13;13.67;;;8.27;;
9508;SDS011;4792;50.088;8.122;2022-12-13T10:06:42;18.87;;;9.03;;
9508;SDS011;4792;50.088;8.122;2022-12-13T10:09:11;17.77;;;8.80;;
9508;SDS011;4792;50.088;8.122;2022-12-13T10:11:46;15.00;;;9.17;;
9508;SDS011;4792;50.088;8.122;2022-12-13T10:14:19;18.37;;;9.60;;
9508;SDS011;4792;50.088;8.122;2022-12-13T10:16:51;16.97;;;9.43;;
9508;SDS011;4792;50.088;8.122;2022-12-13T10:19:25;17.17;;;9.77;;
9508;SDS011;4792;50.088;8.122;2022-12-13T10:21:59;17.10;;;9.23;;
9508;SDS011;4792;50.088;8.122;2022-12-13T10:24:30;17.70;;;9.17;;
9508;SDS011;4792;50.088;8.122;2022-12-13T10:27:17;14.17;;;8.40;;
9508;SDS011;4792;50.088;8.122;2022-12-13T10:29:56;15.93;;;8.70;;
9508;SDS011;4792;50.088;8.122;2022-12-13T10:32:29;15.00;;;8.80;;
9508;SDS011;4792;50.088;8.122;2022-12-13T10:35:10;16.00;;;9.03;;
9508;SDS011;4792;50.088;8.122;2022-12-13T10:37:46;12.90;;;8.33;;
9508;SDS011;4792;50.088;8.122;2022-12-13T10:40:24;14.83;;;8.47;;
9508;SDS011;4792;50.088;8.122;2022-12-13T10:43:07;14.67;;;8.80;;
9508;SDS011;4792;50.088;8.122;2022-12-13T10:45:39;15.57;;;8.47;;
9508;SDS011;4792;50.088;8.122;2022-12-13T10:48:16;13.30;;;8.03;;
9508;SDS011;4792;50.088;8.122;2022-12-13T10:50:57;13.23;;;8.00;;
9508;SDS011;4792;50.088;8.122;2022-12-13T10:53:28;14.17;;;7.40;;
9508;SDS011;4792;50.088;8.122;2022-12-13T10:55:59;13.63;;;8.10;;
9508;SDS011;4792;50.088;8.122;2022-12-13T10:58:37;15.17;;;7.87;;
9508;SDS011;4792;50.088;8.122;2022-12-13T11:01:08;11.93;;;6.97;;
9508;SDS011;4792;50.088;8.122;2022-12-13T11:03:54;13.57;;;8.27;;
9508;SDS011;4792;50.088;8.122;2022-12-13T11:06:43;12.23;;;7.40;;
9508;SDS011;4792;50.088;8.122;2022-12-13T11:09:13;12.70;;;7.37;;
9508;SDS011;4792;50.088;8.122;2022-12-13T11:11:48;13.00;;;8.23;;
9508;SDS011;4792;50.088;8.122;2022-12-13T11:14:26;12.63;;;7.60;;
9508;SDS011;4792;50.088;8.122;2022-12-13T11:16:58;13.40;;;7.97;;
9508;SDS011;4792;50.088;8.122;2022-12-13T11:19:35;15.40;;;8.53;;
9508;SDS011;4792;50.088;8.122;2022-12-13T11:22:07;13.90;;;8.07;;
9508;SDS011;4792;50.088;8.122;2022-12-13T11:24:36;12.03;;;7.00;;
9508;SDS011;4792;50.088;8.122;2022-12-13T11:27:13;17.00;;;7.83;;
9508;SDS011;4792;50.088;8.122;2022-12-13T11:30:09;11.57;;;7.33;;
9508;SDS011;4792;50.088;8.122;2022-12-13T11:32:54;13.57;;;7.43;;
9508;SDS011;4792;50.088;8.122;2022-12-13T11:35:42;13.00;;;8.40;;
9508;SDS011;4792;50.088;8.122;2022-12-13T11:38:23;14.07;;;7.93;;
9508;SDS011;4792;50.088;8.122;2022-12-13T11:40:57;12.97;;;7.73;;
9508;SDS011;4792;50.088;8.122;2022-12-13T11:43:31;14.50;;;8.77;;
9508;SDS011;4792;50.088;8.122;2022-12-13T11:46:10;12.90;;;7.80;;
9508;SDS011;4792;50.088;8.122;2022-12-13T11:48:43;12.17;;;7.00;;
9508;SDS011;4792;50.088;8.122;2022-12-13T11:51:17;15.07;;;10.07;;
9508;SDS011;4792;50.088;8.122;2022-12-13T11:53:53;14.60;;;9.53;;
9508;SDS011;4792;50.088;8.122;2022-12-13T11:56:26;11.57;;;7.10;;
9508;SDS011;4792;50.088;8.122;2022-12-13T11:59:00;13.70;;;8.67;;
9508;SDS011;4792;50.088;8.122;2022-12-13T12:01:53;13.20;;;7.80;;
9508;SDS011;4792;50.088;8.122;2022-12-13T12:04:32;12.07;;;7.30;;
9508;SDS011;4792;50.088;8.122;2022-12-13T12:07:06;15.83;;;7.93;;
9508;SDS011;4792;50.088;8.122;2022-12-13T12:10:04;12.53;;;8.03;;
9508;SDS011;4792;50.088;8.122;2022-12-13T12:12:45;12.40;;;8.20;;
9508;SDS011;4792;50.088;8.122;2022-12-13T12:15:17;15.77;;;7.90;;
9508;SDS011;4792;50.088;8.122;2022-12-13T12:17:57;15.50;;;8.90;;
9508;SDS011;4792;50.088;8.122;2022-12-13T12:20:38;13.55;;;9.23;;
9508;SDS011;4792;50.088;8.122;2022-12-13T12:23:21;11.60;;;7.67;;
9508;SDS011;4792;50.088;8.122;2022-12-13T12:26:09;12.70;;;8.07;;
9508;SDS011;4792;50.088;8.122;2022-12-13T12:28:46;11.63;;;8.13;;
9508;SDS011;4792;50.088;8.122;2022-12-13T12:31:28;13.63;;;8.47;;
9508;SDS011;4792;50.088;8.122;2022-12-13T12:34:19;13.40;;;8.17;;
9508;SDS011;4792;50.088;8.122;2022-12-13T12:36:58;15.50;;;9.10;;
9508;SDS011;4792;50.088;8.122;2022-12-13T12:39:42;16.80;;;8.50;;
9508;SDS011;4792;50.088;8.122;2022-12-13T12:42:17;16.07;;;8.70;;
9508;SDS011;4792;50.088;8.122;2022-12-13T12:48:25;14.03;;;7.67;;
9508;SDS011;4792;50.088;8.122;2022-12-13T12:51:23;14.67;;;8.97;;
9508;SDS011;4792;50.088;8.122;2022-12-13T12:54:06;14.17;;;8.50;;
9508;SDS011;4792;50.088;8.122;2022-12-13T12:56:58;15.90;;;9.00;;
9508;SDS011;4792;50.088;8.122;2022-12-13T12:59:34;16.30;;;9.27;;
9508;SDS011;4792;50.088;8.122;2022-12-13T13:02:12;15.03;;;8.97;;
9508;SDS011;4792;50.088;8.122;2022-12-13T13:04:46;13.63;;;8.27;;
9508;SDS011;4792;50.088;8.122;2022-12-13T13:07:20;13.80;;;8.33;;
9508;SDS011;4792;50.088;8.122;2022-12-13T13:09:53;14.37;;;8.40;;
9508;SDS011;4792;50.088;8.122;2022-12-13T13:12:42;15.80;;;8.70;;
9508;SDS011;4792;50.088;8.122;2022-12-13T13:21:26;17.70;;;9.20;;
9508;SDS011;4792;50.088;8.122;2022-12-13T13:24:19;16.37;;;9.00;;
9508;SDS011;4792;50.088;8.122;2022-12-13T13:26:50;14.97;;;8.97;;
9508;SDS011;4792;50.088;8.122;2022-12-13T13:29:20;15.60;;;9.77;;
9508;SDS011;4792;50.088;8.122;2022-12-13T13:31:57;16.43;;;9.00;;
9508;SDS011;4792;50.088;8.122;2022-12-13T13:34:28;16.80;;;10.00;;
9508;SDS011;4792;50.088;8.122;2022-12-13T13:36:58;15.30;;;9.37;;
9508;SDS011;4792;50.088;8.122;2022-12-13T13:42:24;18.93;;;9.47;;
9508;SDS011;4792;50.088;8.122;2022-12-13T13:45:01;18.97;;;9.90;;
9508;SDS011;4792;50.088;8.122;2022-12-13T13:47:53;20.00;;;10.30;;
9508;SDS011;4792;50.088;8.122;2022-12-13T13:51:05;19.07;;;10.03;;
9508;SDS011;4792;50.088;8.122;2022-12-13T13:57:55;23.53;;;9.53;;
9508;SDS011;4792;50.088;8.122;2022-12-13T14:00:55;17.13;;;9.60;;
9508;SDS011;4792;50.088;8.122;2022-12-13T14:04:19;14.00;;;9.23;;
9508;SDS011;4792;50.088;8.122;2022-12-13T14:10:22;15.23;;;9.67;;
9508;SDS011;4792;50.088;8.122;2022-12-13T14:16:22;15.27;;;8.80;;
9508;SDS011;4792;50.088;8.122;2022-12-13T14:19:18;17.13;;;9.77;;
9508;SDS011;4792;50.088;8.122;2022-12-13T14:22:24;17.70;;;9.90;;
9508;SDS011;4792;50.088;8.122;2022-12-13T14:25:08;16.60;;;9.77;;
9508;SDS011;4792;50.088;8.122;2022-12-13T14:27:52;21.87;;;9.63;;
9508;SDS011;4792;50.088;8.122;2022-12-13T14:30:27;21.43;;;10.37;;
9508;SDS011;4792;50.088;8.122;2022-12-13T14:32:56;19.80;;;10.07;;
9508;SDS011;4792;50.088;8.122;2022-12-13T14:35:25;17.67;;;9.60;;
9508;SDS011;4792;50.088;8.122;2022-12-13T14:37:54;17.47;;;9.80;;
9508;SDS011;4792;50.088;8.122;2022-12-13T14:40:26;18.63;;;10.00;;
9508;SDS011;4792;50.088;8.122;2022-12-13T14:42:56;22.77;;;10.83;;
9508;SDS011;4792;50.088;8.122;2022-12-13T14:45:27;17.17;;;9.57;;
9508;SDS011;4792;50.088;8.122;2022-12-13T14:47:56;18.73;;;9.97;;
9508;SDS011;4792;50.088;8.122;2022-12-13T14:50:27;21.83;;;10.73;;
9508;SDS011;4792;50.088;8.122;2022-12-13T14:52:59;18.47;;;10.83;;
9508;SDS011;4792;50.088;8.122;2022-12-13T14:55:29;17.87;;;10.30;;
9508;SDS011;4792;50.088;8.122;2022-12-13T14:57:59;20.63;;;10.53;;
9508;SDS011;4792;50.088;8.122;2022-12-13T15:00:31;24.03;;;11.33;;
9508;SDS011;4792;50.088;8.122;2022-12-13T15:03:02;21.10;;;11.10;;
9508;SDS011;4792;50.088;8.122;2022-12-13T15:05:36;21.57;;;11.27;;
9508;SDS011;4792;50.088;8.122;2022-12-13T15:08:17;23.37;;;11.40;;
9508;SDS011;4792;50.088;8.122;2022-12-13T15:10:47;22.43;;;11.27;;
9508;SDS011;4792;50.088;8.122;2022-12-13T15:13:20;23.87;;;10.33;;
9508;SDS011;4792;50.088;8.122;2022-12-13T15:15:56;21.63;;;11.83;;
9508;SDS011;4792;50.088;8.122;2022-12-13T15:18:35;19.53;;;10.90;;
9508;SDS011;4792;50.088;8.122;2022-12-13T15:21:12;24.17;;;12.13;;
9508;SDS011;4792;50.088;8.122;2022-12-13T15:23:46;22.10;;;11.53;;
9508;SDS011;4792;50.088;8.122;2022-12-13T15:26:16;20.67;;;10.80;;
9508;SDS011;4792;50.088;8.122;2022-12-13T15:28:55;23.67;;;11.90;;
9508;SDS011;4792;50.088;8.122;2022-12-13T15:31:27;24.73;;;11.80;;
9508;SDS011;4792;50.088;8.122;2022-12-13T15:36:55;22.97;;;12.07;;
9508;SDS011;4792;50.088;8.122;2022-12-13T15:39:26;23.97;;;11.20;;
9508;SDS011;4792;50.088;8.122;2022-12-13T15:41:56;25.53;;;12.47;;
9508;SDS011;4792;50.088;8.122;2022-12-13T15:44:26;22.10;;;12.73;;
9508;SDS011;4792;50.088;8.122;2022-12-13T15:46:59;20.97;;;11.03;;
9508;SDS011;4792;50.088;8.122;2022-12-13T15:49:31;23.00;;;11.67;;
9508;SDS011;4792;50.088;8.122;2022-12-13T15:52:02;22.80;;;13.03;;
9508;SDS011;4792;50.088;8.122;2022-12-13T15:54:32;26.83;;;13.17;;
9508;SDS011;4792;50.088;8.122;2022-12-13T15:57:01;23.87;;;11.67;;
9508;SDS011;4792;50.088;8.122;2022-12-13T15:59:39;22.10;;;11.80;;
9508;SDS011;4792;50.088;8.122;2022-12-13T16:02:12;22.50;;;12.30;;
9508;SDS011;4792;50.088;8.122;2022-12-13T16:04:43;21.30;;;11.17;;
9508;SDS011;4792;50.088;8.122;2022-12-13T16:07:18;24.93;;;12.20;;
9508;SDS011;4792;50.088;8.122;2022-12-13T16:09:49;20.90;;;11.73;;
9508;SDS011;4792;50.088;8.122;2022-12-13T16:12:19;22.03;;;12.47;;
9508;SDS011;4792;50.088;8.122;2022-12-13T16:14:54;21.43;;;11.77;;